Savannah, GA (31405)

8:47 PM EDT en Abril 19, 2015 (GMT -0400)
Chatham Crescent | | Change Station
CLOSE
Current Station
Estación meteorológica personal
Location: Savannah, GA
Altura: 20 ft
Estaciones meteorológicas cercanas

Alt 20 ft 32.04 °N, 81.10 °W | Updated 15 seconds ago

Lluvia
Lluvia
66.2 ° F
Sensación térmica 66.2 ° F
N
0.0
Viento Variable Viento desde Sur
Gusts 0.0 mph

Hoy
Alta -- | Baja -- ° F
--% Posibilidad de precipitaciones
Ayer
Alta -- | Baja -- ° F
Precip. -- pul
6:51 AM 7:56 PM
Luna nueva, 2% visible
Presión 29.76 pul
Visibilidad 10.0 Millas
Nubes Baja 21000 ft
Punto de rocío 65 ° F
Humedad 97%
Precipitaciones 0.87 pul
Espesor de la nieve No disponible.
UV 0 de una escala de 12
Polen 4.20 de una escala de 12
Calidad del aire No disponible.
Flu Activity Sporadic
METAR KSVN 192358Z AUTO 15005KT 10SM FEW210 19/19 A2975 RMK AO2 SLP077 P0000 60058 T01940194 10267 20194 57032 $

More Conditions Fewer Conditions

Presión 29.76 pul
Visibilidad 10.0 Millas
Nubes Baja 21000 ft
Punto de rocío 65 ° F
Humedad 97%
Precipitaciones 0.87 pul
Espesor de la nieve No disponible.
UV 0 de una escala de 12
Polen 4.20 de una escala de 12
Calidad del aire No disponible.
Flu Activity Sporadic
METAR KSVN 192358Z AUTO 15005KT 10SM FEW210 19/19 A2975 RMK AO2 SLP077 P0000 60058 T01940194 10267 20194 57032 $

More Conditions Fewer Conditions

10-Day Weather Forecast

Almanac

Astronomía

Apr. 19, 2015 Salida Puesta
Hora real
Crepúsculo civil
Crepúsculo náutico
Crepúsculo astronómico
Luna
Horas de luz
Horas de luz
Tomorrow will be .
, % of the Moon is Illuminated

Extremos de hoy

Máximos del estado Bajos del estado

Community

WunderPhotos

Upload Photos

1,815,065 ¡fotos cargadas!

WunderBlogs® & News

Nearby

Calidad del aire

  Calidad del aire Índice AQ Contaminante
Not available.

Grosos de nieve

Estación Profundido Altura

Actividad de terremotos

Ciudad Distance Mag. Tiempo y dato
Magnitud mínima muestra es 2,5.

Temperaturas de aguas costeras

Lugar Temperatura

Stations

Estaciones meteorológicas cercanas

Ubicación de la estación Temp. Vientos helados Punto de rocío Humedad Viento Precip. Alt Actualizado Tipo